createdAt,value
2022-08-26T00:00:30.483Z,100.00
2022-08-26T00:03:04.554Z,100.00
2022-08-26T00:05:35.868Z,100.00
2022-08-26T00:08:06.121Z,100.00
2022-08-26T00:10:36.525Z,100.00
2022-08-26T00:13:06.362Z,100.00
2022-08-26T00:15:37.242Z,100.00
2022-08-26T00:18:22.043Z,100.00
2022-08-26T00:20:37.191Z,100.00
2022-08-26T00:23:06.749Z,100.00
2022-08-26T00:25:39.372Z,100.00
2022-08-26T00:28:10.847Z,100.00
2022-08-26T00:30:40.261Z,100.00
2022-08-26T00:33:09.959Z,100.00
2022-08-26T00:35:39.778Z,100.00
2022-08-26T00:38:10.402Z,100.00
2022-08-26T00:40:48.768Z,100.00
2022-08-26T00:43:18.306Z,100.00
2022-08-26T00:45:59.769Z,100.00
2022-08-26T00:48:31.955Z,100.00
2022-08-26T00:51:09.705Z,100.00
2022-08-26T00:53:41.389Z,100.00
2022-08-26T00:56:16.735Z,100.00
2022-08-26T00:58:48.042Z,100.00
2022-08-26T01:01:19.900Z,100.00
2022-08-26T01:03:50.429Z,100.00
2022-08-26T01:06:19.765Z,100.00
2022-08-26T01:08:48.503Z,100.00
2022-08-26T01:11:17.757Z,100.00
2022-08-26T01:13:49.694Z,100.00
2022-08-26T01:16:18.741Z,100.00
2022-08-26T01:18:50.010Z,100.00
2022-08-26T01:21:36.678Z,100.00
2022-08-26T01:24:07.788Z,100.00
2022-08-26T01:26:44.769Z,100.00
2022-08-26T01:29:22.727Z,100.00
2022-08-26T01:31:57.660Z,100.00
2022-08-26T01:34:29.633Z,100.00
2022-08-26T01:37:10.175Z,100.00
2022-08-26T01:39:41.418Z,100.00
2022-08-26T01:42:14.149Z,100.00
2022-08-26T01:44:46.279Z,100.00
2022-08-26T01:47:17.173Z,100.00
2022-08-26T01:49:53.714Z,100.00
2022-08-26T01:52:27.638Z,100.00
2022-08-26T01:54:58.619Z,100.00
2022-08-26T01:57:29.478Z,100.00
2022-08-26T02:00:14.150Z,100.00
2022-08-26T02:02:50.476Z,100.00
2022-08-26T02:05:45.240Z,100.00
2022-08-26T02:08:24.641Z,100.00
2022-08-26T02:10:56.735Z,100.00
2022-08-26T02:13:35.361Z,100.00
2022-08-26T02:16:08.713Z,100.00
2022-08-26T02:18:43.990Z,100.00
2022-08-26T02:21:14.823Z,100.00
2022-08-26T02:23:47.789Z,100.00
2022-08-26T02:26:20.068Z,100.00
2022-08-26T02:28:54.580Z,100.00
2022-08-26T02:31:23.794Z,100.00
2022-08-26T02:33:54.307Z,100.00
2022-08-26T02:36:35.381Z,100.00
2022-08-26T02:39:06.145Z,100.00
2022-08-26T02:41:44.977Z,100.00
2022-08-26T02:44:15.367Z,100.00
2022-08-26T02:46:47.043Z,100.00
2022-08-26T02:49:17.355Z,100.00
2022-08-26T02:51:47.076Z,100.00
2022-08-26T02:54:15.958Z,100.00
2022-08-26T02:56:45.923Z,100.00
2022-08-26T02:59:15.426Z,100.00
2022-08-26T03:01:45.434Z,100.00
2022-08-26T03:04:16.280Z,100.00
2022-08-26T03:06:52.742Z,100.00
2022-08-26T03:09:18.573Z,100.00
2022-08-26T03:11:47.361Z,100.00
2022-08-26T03:14:16.091Z,100.00
2022-08-26T03:16:44.835Z,100.00
2022-08-26T03:19:15.327Z,100.00
2022-08-26T03:21:47.203Z,100.00
2022-08-26T03:24:17.826Z,100.00
2022-08-26T03:26:52.730Z,100.00
2022-08-26T03:29:36.363Z,100.00
2022-08-26T03:32:06.273Z,100.00
2022-08-26T03:34:35.892Z,100.00
2022-08-26T03:37:05.159Z,100.00
2022-08-26T03:39:34.188Z,100.00
2022-08-26T03:42:03.049Z,100.00
2022-08-26T03:44:31.749Z,100.00
2022-08-26T03:47:01.582Z,100.00
2022-08-26T03:49:34.107Z,100.00
2022-08-26T03:52:03.795Z,100.00
2022-08-26T03:54:32.540Z,100.00
2022-08-26T03:57:01.753Z,100.00
2022-08-26T03:59:30.348Z,100.00
2022-08-26T04:02:01.267Z,100.00
2022-08-26T04:04:31.987Z,100.00
2022-08-26T04:07:03.501Z,100.00
2022-08-26T04:09:35.183Z,100.00
2022-08-26T04:12:04.566Z,100.00
2022-08-26T04:14:35.244Z,100.00
2022-08-26T04:17:08.290Z,100.00
2022-08-26T04:19:40.091Z,100.00
2022-08-26T04:22:08.772Z,100.00
2022-08-26T04:24:39.567Z,100.00
2022-08-26T04:27:08.843Z,100.00
2022-08-26T05:02:51.585Z,100.00
2022-08-26T05:05:20.659Z,100.00
2022-08-26T05:07:49.950Z,100.00
2022-08-26T05:10:22.086Z,100.00
2022-08-26T05:12:50.769Z,100.00
2022-08-26T05:15:21.516Z,100.00
2022-08-26T05:17:51.694Z,100.00
2022-08-26T05:20:25.136Z,100.00
2022-08-26T05:22:52.559Z,100.00
2022-08-26T05:25:22.311Z,100.00
2022-08-26T05:27:53.550Z,100.00
2022-08-26T05:30:25.216Z,100.00
2022-08-26T05:32:55.527Z,97.01
2022-08-26T05:35:24.240Z,97.37
2022-08-26T05:37:53.398Z,93.82
2022-08-26T05:40:24.769Z,91.40
2022-08-26T05:43:01.970Z,87.15
2022-08-26T05:45:34.785Z,89.44
2022-08-26T05:48:08.022Z,88.16
2022-08-26T05:50:50.901Z,88.60
2022-08-26T05:53:26.205Z,90.47
2022-08-26T05:55:56.401Z,89.79
2022-08-26T05:58:32.938Z,88.19
2022-08-26T06:01:09.569Z,85.04
2022-08-26T06:03:42.546Z,88.43
2022-08-26T06:06:16.788Z,89.42
2022-08-26T06:11:42.994Z,87.89
2022-08-26T06:23:26.550Z,90.42
2022-08-26T06:54:40.991Z,66.12
2022-08-26T06:57:14.872Z,67.53
2022-08-26T06:59:45.306Z,68.39
2022-08-26T07:02:15.697Z,65.37
2022-08-26T07:04:47.789Z,64.94
2022-08-26T07:07:16.790Z,63.49
2022-08-26T07:29:47.820Z,60.20
2022-08-26T07:38:55.893Z,56.79
2022-08-26T07:41:51.586Z,61.47
2022-08-26T07:44:37.311Z,58.42
2022-08-26T07:56:25.984Z,54.74
2022-08-26T07:58:56.391Z,55.79
2022-08-26T08:01:30.177Z,55.99
2022-08-26T08:04:11.813Z,55.36
2022-08-26T08:06:53.112Z,52.26
2022-08-26T08:15:56.508Z,53.39
2022-08-26T08:18:25.231Z,51.03
2022-08-26T08:20:59.131Z,53.36
2022-08-26T08:23:27.191Z,52.55
2022-08-26T08:26:08.324Z,52.78
2022-08-26T08:28:38.678Z,52.83
2022-08-26T08:31:09.700Z,54.32
2022-08-26T08:33:38.525Z,51.45
2022-08-26T08:36:09.223Z,48.29
2022-08-26T08:38:39.881Z,49.27
2022-08-26T08:41:19.615Z,50.39
2022-08-26T08:44:02.388Z,48.97
2022-08-26T08:49:26.155Z,48.05
2022-08-26T08:52:22.904Z,45.64
2022-08-26T08:54:57.835Z,47.56
2022-08-26T08:55:48.762Z,47.22
2022-08-26T08:57:53.682Z,44.78
2022-08-26T09:00:30.291Z,44.67
2022-08-26T09:03:31.241Z,46.85
2022-08-26T09:05:55.257Z,46.62
2022-08-26T09:08:50.453Z,45.15
2022-08-26T09:11:40.132Z,43.79
2022-08-26T09:14:14.376Z,45.00
2022-08-26T09:17:12.336Z,45.35
2022-08-26T09:19:51.474Z,48.20
2022-08-26T09:22:41.256Z,47.00
2022-08-26T09:25:22.572Z,44.60
2022-08-26T09:27:54.429Z,42.62
2022-08-26T09:30:35.113Z,40.48
2022-08-26T09:33:14.541Z,38.79
2022-08-26T09:35:48.761Z,39.03
2022-08-26T09:38:29.696Z,33.87
2022-08-26T09:41:05.152Z,34.17
2022-08-26T09:43:34.647Z,34.73
2022-08-26T09:46:21.513Z,33.25
2022-08-26T09:48:51.778Z,35.07
2022-08-26T09:51:29.621Z,34.28
2022-08-26T09:54:05.805Z,33.12
2022-08-26T09:56:39.210Z,32.22
2022-08-26T09:59:18.843Z,32.04
2022-08-26T10:01:48.305Z,32.50
2022-08-26T10:04:30.890Z,31.15
2022-08-26T10:07:08.387Z,31.34
2022-08-26T10:09:45.318Z,32.57
2022-08-26T10:15:08.384Z,31.59
2022-08-26T10:17:46.541Z,29.53
2022-08-26T10:20:24.039Z,31.28
2022-08-26T10:23:03.430Z,31.45
2022-08-26T10:35:57.948Z,29.62
2022-08-26T10:38:41.584Z,30.85
2022-08-26T10:41:18.238Z,29.62
2022-08-26T10:43:57.433Z,30.87
2022-08-26T10:46:29.478Z,28.72
2022-08-26T10:49:19.913Z,29.19
2022-08-26T10:52:12.149Z,29.27
2022-08-26T10:54:46.220Z,29.61
2022-08-26T10:57:46.257Z,29.27
2022-08-26T11:00:39.215Z,30.58
2022-08-26T11:03:54.550Z,30.32
2022-08-26T11:09:49.124Z,29.07
2022-08-26T11:12:42.335Z,30.71
2022-08-26T11:15:13.962Z,29.04
2022-08-26T11:20:42.500Z,30.89
2022-08-26T11:23:25.083Z,31.26
2022-08-26T11:26:11.925Z,31.50
2022-08-26T11:28:53.901Z,31.43
2022-08-26T11:31:30.617Z,31.12
2022-08-26T11:34:04.459Z,28.64
2022-08-26T11:36:54.860Z,28.73
2022-08-26T11:43:18.907Z,28.59
2022-08-26T11:48:50.831Z,27.40
2022-08-26T11:57:49.655Z,27.62
2022-08-26T12:00:34.452Z,27.83
2022-08-26T12:06:08.142Z,28.71
2022-08-26T12:08:49.530Z,28.60
2022-08-26T12:14:36.103Z,28.44
2022-08-26T12:17:49.432Z,29.03
2022-08-26T12:20:32.765Z,28.89
2022-08-26T12:23:00.873Z,28.92
2022-08-26T12:25:36.294Z,28.51
2022-08-26T12:28:14.574Z,27.90
2022-08-26T12:31:03.156Z,28.44
2022-08-26T12:33:35.453Z,28.54
2022-08-26T12:36:16.369Z,28.85
2022-08-26T12:43:13.633Z,28.68
2022-08-26T12:49:05.428Z,28.37
2022-08-26T12:52:04.120Z,28.97
2022-08-26T12:54:28.460Z,28.96
2022-08-26T12:56:57.822Z,29.61
2022-08-26T12:59:27.521Z,28.11
2022-08-26T13:01:58.380Z,28.67
2022-08-26T13:04:42.848Z,28.96
2022-08-26T13:07:22.301Z,28.52
2022-08-26T13:09:53.379Z,29.24
2022-08-26T13:12:29.888Z,29.31
2022-08-26T13:15:01.081Z,28.77
2022-08-26T13:17:30.945Z,28.41
2022-08-26T13:20:04.040Z,28.83
2022-08-26T13:22:33.746Z,28.83
2022-08-26T13:25:02.588Z,28.70
2022-08-26T13:27:31.229Z,29.31
2022-08-26T13:30:01.644Z,29.06
2022-08-26T13:32:30.493Z,29.32
2022-08-26T13:35:05.719Z,29.08
2022-08-26T13:37:34.686Z,28.41
2022-08-26T13:40:02.790Z,28.87
2022-08-26T13:42:32.556Z,28.51
2022-08-26T13:45:11.333Z,28.58
2022-08-26T13:47:40.135Z,28.52
2022-08-26T13:50:11.769Z,28.66
2022-08-26T13:52:42.244Z,28.84
2022-08-26T13:58:08.577Z,29.14
2022-08-26T14:00:43.242Z,28.44
2022-08-26T14:03:17.616Z,29.13
2022-08-26T14:05:55.659Z,28.92
2022-08-26T14:08:26.024Z,29.28
2022-08-26T14:10:59.535Z,29.08
2022-08-26T14:13:28.939Z,28.71
2022-08-26T14:16:01.735Z,28.88
2022-08-26T14:21:14.688Z,29.50
2022-08-26T14:23:46.250Z,29.37
2022-08-26T14:26:28.799Z,29.12
2022-08-26T14:28:58.007Z,28.91
2022-08-26T14:31:31.922Z,29.36
2022-08-26T14:34:09.837Z,29.99
2022-08-26T14:36:39.336Z,30.05
2022-08-26T14:39:20.152Z,30.07
2022-08-26T14:42:02.817Z,30.31
2022-08-26T14:44:44.482Z,30.70
2022-08-26T14:50:49.898Z,30.01
2022-08-26T14:54:00.419Z,29.88
2022-08-26T14:59:38.472Z,29.40
2022-08-26T15:02:13.792Z,29.67
2022-08-26T15:04:52.309Z,28.60
2022-08-26T15:07:25.421Z,27.99
2022-08-26T15:09:57.507Z,28.38
2022-08-26T15:12:37.253Z,28.87
2022-08-26T15:15:07.856Z,28.45
2022-08-26T15:17:54.834Z,27.62
2022-08-26T15:21:12.145Z,28.03
2022-08-26T15:23:20.949Z,27.24
2022-08-26T15:25:51.722Z,27.67
2022-08-26T15:28:20.531Z,26.87
2022-08-26T15:30:51.496Z,27.63
2022-08-26T15:33:22.094Z,26.81
2022-08-26T15:35:55.336Z,27.10
2022-08-26T15:38:25.420Z,27.23
2022-08-26T15:40:58.710Z,26.95
2022-08-26T15:43:29.126Z,26.86
2022-08-26T15:45:58.796Z,26.29
2022-08-26T15:48:33.877Z,27.69
2022-08-26T15:51:03.101Z,27.97
2022-08-26T15:53:34.056Z,28.25
2022-08-26T15:56:03.042Z,28.87
2022-08-26T15:58:31.988Z,28.93
2022-08-26T16:01:01.126Z,28.83
2022-08-26T16:03:29.947Z,28.78
2022-08-26T16:05:59.233Z,29.36
2022-08-26T16:08:27.827Z,29.70
2022-08-26T16:11:03.694Z,30.67
2022-08-26T16:13:39.681Z,30.05
2022-08-26T16:16:06.875Z,30.61
2022-08-26T16:18:37.374Z,31.11
2022-08-26T16:21:13.612Z,32.39
2022-08-26T16:23:39.011Z,31.82
2022-08-26T16:26:15.991Z,31.56
2022-08-26T16:28:45.035Z,32.57
2022-08-26T16:31:15.247Z,33.16
2022-08-26T16:33:46.406Z,33.53
2022-08-26T16:36:19.329Z,34.72
2022-08-26T16:38:52.750Z,33.93
2022-08-26T16:41:22.259Z,35.45
2022-08-26T16:43:53.213Z,36.50
2022-08-26T16:46:25.039Z,35.69
2022-08-26T16:48:57.791Z,35.77
2022-08-26T16:51:29.068Z,36.72
2022-08-26T16:54:01.356Z,36.51
2022-08-26T16:56:34.046Z,37.25
2022-08-26T16:59:08.468Z,38.15
2022-08-26T17:01:38.299Z,39.16
2022-08-26T17:04:07.039Z,39.00
2022-08-26T17:06:36.442Z,38.84
2022-08-26T17:09:06.848Z,39.19
2022-08-26T17:11:36.345Z,38.90
2022-08-26T17:14:05.835Z,39.18
2022-08-26T17:16:34.662Z,39.59
2022-08-26T17:19:04.574Z,41.14
2022-08-26T17:21:36.393Z,40.24
2022-08-26T17:24:06.753Z,40.69
2022-08-26T17:26:38.938Z,43.07
2022-08-26T17:29:08.109Z,43.51
2022-08-26T17:31:39.497Z,43.76
2022-08-26T17:34:09.938Z,43.86
2022-08-26T17:36:38.731Z,45.29
2022-08-26T17:39:07.519Z,46.85
2022-08-26T17:41:36.395Z,47.96
2022-08-26T17:44:06.127Z,49.62
2022-08-26T17:46:38.465Z,51.52
2022-08-26T17:49:11.021Z,52.15
2022-08-26T17:54:41.198Z,52.94
2022-08-26T17:57:10.686Z,53.33
2022-08-26T18:00:32.858Z,53.01
2022-08-26T18:03:33.659Z,53.06
2022-08-26T18:08:53.894Z,54.29
2022-08-26T18:14:59.609Z,54.51
2022-08-26T18:17:29.993Z,56.04
2022-08-26T18:19:59.096Z,56.52
2022-08-26T18:22:27.983Z,57.63
2022-08-26T18:24:58.737Z,57.66
2022-08-26T18:27:27.433Z,56.04
2022-08-26T18:29:56.548Z,57.22
2022-08-26T18:32:25.292Z,56.68
2022-08-26T18:34:54.172Z,58.13
2022-08-26T18:37:24.185Z,59.00
2022-08-26T18:39:53.737Z,61.04
2022-08-26T18:42:24.179Z,60.83
2022-08-26T18:44:53.023Z,64.37
2022-08-26T18:47:22.695Z,62.56
2022-08-26T18:49:51.491Z,61.31
2022-08-26T18:52:20.228Z,64.05
2022-08-26T18:54:48.947Z,65.75
2022-08-26T18:57:17.624Z,63.89
2022-08-26T18:59:46.466Z,64.22
2022-08-26T19:02:16.015Z,64.80
2022-08-26T19:04:44.881Z,65.63
2022-08-26T19:07:14.750Z,65.91
2022-08-26T19:09:43.349Z,66.15
2022-08-26T19:12:15.011Z,66.18
2022-08-26T19:14:48.164Z,68.34
2022-08-26T19:17:17.061Z,68.06
2022-08-26T19:20:16.036Z,69.41
2022-08-26T19:22:46.062Z,69.02
2022-08-26T19:25:14.926Z,70.00
2022-08-26T19:30:53.391Z,73.79
2022-08-26T19:33:41.595Z,75.66
2022-08-26T19:39:08.395Z,78.97
2022-08-26T19:41:39.179Z,79.87
2022-08-26T19:44:12.952Z,78.47
2022-08-26T19:49:37.836Z,81.39
2022-08-26T19:52:36.069Z,76.75
2022-08-26T20:01:09.592Z,75.70
2022-08-26T20:03:43.539Z,80.23
2022-08-26T20:06:14.403Z,80.69
2022-08-26T20:08:44.404Z,79.71
2022-08-26T20:11:16.626Z,79.35
2022-08-26T20:13:47.745Z,79.52
2022-08-26T20:16:18.303Z,81.30
2022-08-26T20:19:07.074Z,80.96
2022-08-26T20:21:38.177Z,83.61
2022-08-26T20:24:09.865Z,84.08
2022-08-26T20:26:40.480Z,82.69
2022-08-26T20:29:11.602Z,80.73
2022-08-26T20:31:41.077Z,80.90
2022-08-26T20:34:09.952Z,84.36
2022-08-26T20:36:40.859Z,83.77
2022-08-26T20:39:10.920Z,86.30
2022-08-26T20:41:40.211Z,87.13
2022-08-26T20:44:10.806Z,86.79
2022-08-26T20:46:40.893Z,87.38
2022-08-26T20:49:15.031Z,91.31
2022-08-26T20:51:45.983Z,90.95
2022-08-26T20:54:15.769Z,92.05
2022-08-26T20:59:38.539Z,94.37
2022-08-26T21:05:06.859Z,98.75
2022-08-26T21:08:37.037Z,100.00
2022-08-26T21:20:34.544Z,100.00
2022-08-26T21:23:03.561Z,100.00
2022-08-26T21:35:41.927Z,100.00
2022-08-26T21:41:41.120Z,100.00
2022-08-26T21:48:53.828Z,100.00
2022-08-26T21:51:34.009Z,100.00
2022-08-26T21:54:22.724Z,100.00
2022-08-26T22:00:09.817Z,100.00
2022-08-26T22:02:38.643Z,100.00
2022-08-26T22:05:15.934Z,100.00
2022-08-26T22:07:52.435Z,100.00
2022-08-26T22:31:44.511Z,100.00
2022-08-26T22:36:59.113Z,100.00
2022-08-26T22:39:33.323Z,100.00
2022-08-26T23:14:47.744Z,100.00
2022-08-26T23:16:58.350Z,100.00
2022-08-26T23:19:38.772Z,100.00
2022-08-26T23:22:25.198Z,100.00
2022-08-26T23:31:23.189Z,100.00
2022-08-26T23:34:31.478Z,100.00
2022-08-26T23:37:29.487Z,100.00
2022-08-26T23:40:06.817Z,100.00
2022-08-26T23:42:52.180Z,100.00
2022-08-26T23:48:42.574Z,100.00
2022-08-26T23:51:49.160Z,100.00
2022-08-26T23:54:31.464Z,100.00
2022-08-26T23:57:03.859Z,100.00
